Time;durP1;ratioP1;P1;durP2;ratioP2;P2;SDS_P1;SDS_P2;PMS_P1;PMS_P2;Temp;Humidity;BMP_temperature;BMP_pressure;BME280_temperature;BME280_humidity;BME280_pressure;Samples;Min_cycle;Max_cycle;Signal;HPM_P1;HPM_P2
2022/08/25 00:01:58;;;;;;;20.05;10.63;;;;;;;17.85;58.30;101015.27;1639016;85;21019;-92
2022/08/25 00:04:25;;;;;;;20.92;11.83;;;;;;;17.85;58.08;101008.63;1638799;87;20896;-93
2022/08/25 00:06:54;;;;;;;17.20;11.40;;;;;;;17.87;58.05;101014.66;1639152;84;21013;-92
2022/08/25 00:09:26;;;;;;;25.90;12.88;;;;;;;17.87;56.23;101012.84;1639185;85;21178;-94
2022/08/25 00:11:54;;;;;;;17.12;9.88;;;;;;;17.92;55.43;101013.31;1639321;84;20964;-92
2022/08/25 00:14:30;;;;;;;19.10;10.43;;;;;;;18.03;56.96;101013.73;1645825;87;21066;-94
2022/08/25 00:16:59;;;;;;;17.98;9.80;;;;;;;18.10;57.09;101014.05;1644809;87;20979;-94
2022/08/25 00:19:34;;;;;;;24.05;13.70;;;;;;;18.18;56.81;101015.05;1655163;83;20991;-94
2022/08/25 00:22:01;;;;;;;23.42;12.50;;;;;;;18.27;53.19;101008.59;1683237;84;21192;-93
2022/08/25 00:24:29;;;;;;;22.60;13.75;;;;;;;18.45;52.90;101010.98;1682845;85;20948;-92
2022/08/25 00:26:57;;;;;;;15.88;12.10;;;;;;;18.62;51.66;101012.17;1683003;85;20983;-90
2022/08/25 00:29:27;;;;;;;20.10;14.07;;;;;;;18.79;50.57;101016.87;1683185;85;20987;-91
2022/08/25 00:31:54;;;;;;;22.13;13.32;;;;;;;18.95;48.74;101013.69;1683151;84;20947;-90
2022/08/25 00:34:25;;;;;;;26.62;13.28;;;;;;;19.16;47.83;101016.23;1683130;84;21105;-92
2022/08/25 00:36:52;;;;;;;23.77;12.90;;;;;;;19.36;46.85;101020.23;1682387;85;20932;-92
2022/08/25 00:39:21;;;;;;;25.15;13.22;;;;;;;19.55;46.55;101022.08;1683275;85;20917;-91
2022/08/25 00:41:49;;;;;;;19.42;11.40;;;;;;;19.72;45.66;101024.53;1682930;85;20999;-91
2022/08/25 00:44:18;;;;;;;21.85;11.90;;;;;;;19.90;44.78;101025.97;1683232;85;21484;-91
2022/08/25 00:46:49;;;;;;;20.27;10.30;;;;;;;20.03;44.84;101022.52;1683494;85;21250;-93
2022/08/25 00:49:36;;;;;;;14.35;9.98;;;;;;;20.16;44.36;101028.37;1683464;85;20995;-92
2022/08/25 00:52:11;;;;;;;16.97;8.68;;;;;;;20.26;44.07;101022.53;1684553;84;20912;-89
2022/08/25 00:54:42;;;;;;;12.35;7.00;;;;;;;20.37;43.63;101024.69;1684433;85;21425;-88
2022/08/25 00:57:10;;;;;;;11.65;7.05;;;;;;;20.45;43.29;101021.64;1655656;86;20916;-91
2022/08/25 00:59:37;;;;;;;10.18;6.75;;;;;;;20.53;42.96;101024.05;1671386;85;21151;-91
2022/08/25 01:02:04;;;;;;;11.68;6.72;;;;;;;20.60;42.88;101023.34;1675795;85;20959;-89
2022/08/25 01:04:31;;;;;;;13.18;7.03;;;;;;;20.66;42.40;101012.59;1676023;85;20945;-93
2022/08/25 01:06:57;;;;;;;15.58;7.10;;;;;;;20.72;42.52;101025.33;1676148;85;20951;-90
2022/08/25 01:09:24;;;;;;;14.25;5.20;;;;;;;20.77;42.23;101024.88;1676222;85;20991;-92
2022/08/25 01:11:51;;;;;;;13.05;4.95;;;;;;;20.81;41.42;101028.91;1676503;85;21421;-92
2022/08/25 01:14:20;;;;;;;15.68;5.53;;;;;;;20.86;41.43;101023.48;1675817;85;21034;-92
2022/08/25 01:16:46;;;;;;;14.00;5.62;;;;;;;20.92;41.30;101027.39;1676191;85;20962;-91
2022/08/25 01:19:14;;;;;;;14.30;5.35;;;;;;;20.96;41.37;101021.25;1683910;84;21397;-91
2022/08/25 01:21:44;;;;;;;9.78;5.40;;;;;;;20.98;41.30;101024.61;1699405;84;20947;-92
2022/08/25 01:24:15;;;;;;;9.23;5.40;;;;;;;21.01;41.44;101025.62;1699141;84;21103;-92
2022/08/25 01:26:41;;;;;;;10.48;5.30;;;;;;;21.03;41.73;101025.85;1698946;84;20951;-91
2022/08/25 01:29:20;;;;;;;10.53;5.90;;;;;;;21.05;41.38;101032.34;1699056;84;20962;-91
2022/08/25 01:31:49;;;;;;;11.10;5.83;;;;;;;21.05;41.41;101031.02;1699012;84;20974;-91
2022/08/25 01:34:20;;;;;;;8.40;6.65;;;;;;;21.06;41.54;101031.38;1698881;84;20948;-91
2022/08/25 01:36:47;;;;;;;16.07;7.70;;;;;;;21.06;41.30;101030.88;1699035;84;21457;-90
2022/08/25 01:39:13;;;;;;;10.80;7.00;;;;;;;21.07;41.05;101037.04;1699373;84;21373;-93
2022/08/25 01:42:04;;;;;;;18.27;8.30;;;;;;;21.07;41.10;101029.87;1699089;84;20942;-93
2022/08/25 01:44:34;;;;;;;17.00;7.95;;;;;;;21.07;41.35;101031.20;1688494;84;20959;-90
2022/08/25 01:47:02;;;;;;;15.75;9.18;;;;;;;21.07;41.02;101029.87;1699150;84;20856;-92
2022/08/25 01:51:45;;;;;;;14.70;8.83;;;;;;;21.12;41.60;101030.75;1855262;77;22669;-91
2022/08/25 01:54:13;;;;;;;18.92;9.50;;;;;;;21.07;41.74;101029.87;1792708;78;20939;-90
2022/08/25 01:56:43;;;;;;;18.42;10.50;;;;;;;21.06;41.88;101029.54;1823491;78;21209;-90
2022/08/25 01:59:09;;;;;;;15.90;10.58;;;;;;;21.05;43.29;101029.68;1823171;78;20868;-91
2022/08/25 02:01:36;;;;;;;18.00;9.95;;;;;;;21.03;43.48;101032.98;1791438;78;21373;-91
2022/08/25 02:04:03;;;;;;;17.98;10.18;;;;;;;20.98;43.36;101029.44;1823246;78;20974;-92
2022/08/25 02:06:31;;;;;;;14.10;9.53;;;;;;;20.97;43.22;101025.11;1822954;78;20915;-93
2022/08/25 02:09:06;;;;;;;22.15;9.40;;;;;;;20.95;43.30;101020.92;1823370;78;21801;-91
2022/08/25 02:11:38;;;;;;;17.35;10.75;;;;;;;20.95;43.23;101028.42;1823415;78;20993;-89
2022/08/25 02:14:05;;;;;;;14.60;11.30;;;;;;;20.93;42.93;101025.06;1824919;78;20931;-90
2022/08/25 02:16:34;;;;;;;19.05;11.20;;;;;;;20.93;42.65;101025.56;1824313;78;20884;-90
2022/08/25 02:19:00;;;;;;;19.42;12.13;;;;;;;20.91;42.47;101028.37;1823735;78;20880;-92
2022/08/25 02:21:27;;;;;;;19.02;11.48;;;;;;;20.90;42.22;101027.53;1823697;78;22004;-91
2022/08/25 02:23:54;;;;;;;15.68;10.40;;;;;;;20.89;42.15;101035.17;1823241;78;20969;-91
2022/08/25 02:26:21;;;;;;;17.85;10.65;;;;;;;20.88;42.35;101030.84;1823028;78;20887;-92
2022/08/25 02:28:49;;;;;;;22.73;10.72;;;;;;;20.88;42.09;101036.17;1823213;78;21381;-92
2022/08/25 02:31:16;;;;;;;22.48;12.33;;;;;;;20.87;42.35;101030.98;1823713;78;20931;-94
2022/08/25 02:33:43;;;;;;;20.40;10.80;;;;;;;20.88;42.15;101031.34;1823417;78;21864;-91
2022/08/25 02:36:10;;;;;;;16.02;10.72;;;;;;;20.87;42.17;101038.98;1823543;78;20951;-93
2022/08/25 02:38:37;;;;;;;18.17;11.15;;;;;;;20.87;42.06;101026.98;1824663;78;20880;-91
2022/08/25 02:41:17;;;;;;;13.43;9.33;;;;;;;20.86;42.12;101038.66;1825567;78;20903;-90
2022/08/25 02:43:44;;;;;;;13.93;9.58;;;;;;;20.85;41.72;101037.82;1824405;78;20942;-92
2022/08/25 02:46:11;;;;;;;14.10;10.32;;;;;;;20.84;41.59;101045.95;1823671;78;21755;-92
2022/08/25 02:48:38;;;;;;;15.35;9.83;;;;;;;20.81;41.29;101043.56;1823893;78;20880;-91
2022/08/25 02:51:07;;;;;;;16.00;9.50;;;;;;;20.80;41.47;101041.41;1826912;77;21069;-90
2022/08/25 02:53:34;;;;;;;14.43;7.53;;;;;;;20.80;41.52;101041.91;1828551;77;20911;-91
2022/08/25 02:56:03;;;;;;;9.75;7.50;;;;;;;20.80;41.66;101052.56;1828394;78;20844;-92
2022/08/25 02:58:30;;;;;;;13.93;8.00;;;;;;;20.79;41.75;101048.23;1828816;77;21148;-91
2022/08/25 03:00:57;;;;;;;8.95;7.10;;;;;;;20.78;41.82;101048.70;1826521;78;20868;-92
2022/08/25 03:03:24;;;;;;;10.00;6.37;;;;;;;20.77;42.11;101044.88;1825950;78;20931;-90
2022/08/25 03:05:50;;;;;;;12.65;6.33;;;;;;;20.77;42.08;101049.70;1825746;78;20915;-92
2022/08/25 03:08:17;;;;;;;14.43;7.47;;;;;;;20.76;42.28;101048.02;1825728;78;20915;-93
2022/08/25 03:10:44;;;;;;;13.80;6.22;;;;;;;20.76;42.33;101058.67;1826059;78;21291;-92
2022/08/25 03:13:10;;;;;;;13.05;6.15;;;;;;;20.77;42.64;101059.04;1826029;78;21349;-92
2022/08/25 03:15:41;;;;;;;11.20;7.65;;;;;;;20.78;42.29;101059.88;1826198;78;21314;-94
2022/08/25 03:18:08;;;;;;;11.10;6.72;;;;;;;20.78;42.34;101058.53;1825865;78;20895;-93
2022/08/25 03:20:35;;;;;;;10.40;5.55;;;;;;;20.77;42.32;101051.04;1826460;78;20888;-92
2022/08/25 03:23:02;;;;;;;12.37;6.22;;;;;;;20.79;42.40;101057.56;1825978;78;21156;-93
2022/08/25 03:28:16;;;;;;;9.25;5.70;;;;;;;20.81;42.20;101059.56;1825634;78;21028;-91
2022/08/25 03:30:43;;;;;;;9.38;5.55;;;;;;;20.81;42.20;101056.89;1825866;78;20931;-93
2022/08/25 03:33:10;;;;;;;11.90;5.30;;;;;;;20.81;42.29;101056.42;1796597;78;20915;-92
2022/08/25 03:35:36;;;;;;;12.90;5.28;;;;;;;20.83;42.25;101057.13;1826106;78;21130;-94
2022/08/25 03:38:04;;;;;;;13.78;5.15;;;;;;;20.85;42.40;101060.95;1825885;78;21472;-94
2022/08/25 03:40:31;;;;;;;7.55;5.67;;;;;;;20.87;42.34;101059.81;1825885;78;21392;-92
2022/08/25 03:42:58;;;;;;;13.08;5.42;;;;;;;20.88;42.57;101058.01;1825844;78;20915;-93
2022/08/25 03:45:24;;;;;;;10.00;5.67;;;;;;;20.90;42.44;101063.53;1825646;78;21396;-92
2022/08/25 03:47:51;;;;;;;11.18;5.60;;;;;;;20.93;42.40;101061.56;1825960;78;21290;-92
2022/08/25 03:50:19;;;;;;;9.20;6.10;;;;;;;20.95;42.29;101059.08;1824691;78;20844;-92
2022/08/25 03:52:53;;;;;;;11.35;5.17;;;;;;;20.98;42.69;101063.27;1822297;78;20915;-90
2022/08/25 03:55:19;;;;;;;;;;;;;;;20.99;42.92;101060.47;1825487;78;20935;-93
2022/08/25 03:57:46;;;;;;;11.75;5.12;;;;;;;21.03;42.09;101056.52;1823219;78;20117;-93
2022/08/25 04:00:16;;;;;;;12.80;4.85;;;;;;;21.06;42.37;101061.55;1821000;78;21547;-93
2022/08/25 04:02:43;;;;;;;16.00;4.70;;;;;;;21.11;42.32;101055.76;1823241;78;20955;-91
2022/08/25 04:05:10;;;;;;;12.33;5.90;;;;;;;21.15;42.50;101058.98;1823798;78;20848;-90
2022/08/25 04:07:38;;;;;;;11.18;4.92;;;;;;;21.19;42.54;101059.86;1823629;78;20892;-94
2022/08/25 04:10:08;;;;;;;10.78;5.20;;;;;;;21.24;41.95;101062.90;1824037;78;20892;-92
2022/08/25 04:12:36;;;;;;;8.68;5.65;;;;;;;21.27;42.03;101067.09;1824395;78;21128;-93
2022/08/25 04:15:12;;;;;;;13.45;4.85;;;;;;;21.32;41.68;101062.13;1823733;78;21005;-94
2022/08/25 04:17:45;;;;;;;16.32;5.37;;;;;;;21.39;41.76;101067.70;1722827;83;21004;-92
2022/08/25 04:20:13;;;;;;;15.45;7.08;;;;;;;21.46;41.27;101058.98;1722292;83;21294;-94
2022/08/25 04:22:40;;;;;;;8.10;4.55;;;;;;;21.52;41.26;101058.38;1722396;83;21422;-93
2022/08/25 04:25:07;;;;;;;21.52;5.95;;;;;;;21.57;41.35;101060.59;1722102;83;21116;-95
2022/08/25 04:27:35;;;;;;;10.65;5.80;;;;;;;21.63;41.46;101067.99;1722354;83;20921;-93
2022/08/25 04:30:01;;;;;;;11.73;5.28;;;;;;;21.69;41.26;101067.86;1722899;83;20898;-93
2022/08/25 04:32:36;;;;;;;8.80;5.42;;;;;;;21.75;41.24;101065.08;1723595;83;21024;-92
2022/08/25 04:35:07;;;;;;;10.13;5.53;;;;;;;21.82;41.20;101068.30;1723866;81;20969;-95
2022/08/25 04:37:34;;;;;;;12.70;6.40;;;;;;;21.89;41.14;101073.86;1723842;83;21155;-93
2022/08/25 04:40:01;;;;;;;12.60;6.80;;;;;;;21.98;41.00;101074.77;1724096;83;20873;-95
2022/08/25 04:42:28;;;;;;;11.65;5.67;;;;;;;22.08;40.86;101072.34;1723396;83;20973;-94
2022/08/25 04:44:55;;;;;;;15.13;7.80;;;;;;;22.18;40.82;101072.23;1722437;83;21000;-93
2022/08/25 04:47:22;;;;;;;15.18;8.75;;;;;;;22.29;40.55;101068.00;1722129;83;20916;-94
2022/08/25 04:49:48;;;;;;;19.40;8.93;;;;;;;22.41;40.27;101073.07;1816135;78;21142;-95
2022/08/25 04:52:17;;;;;;;20.48;9.45;;;;;;;22.53;39.74;101070.48;1825671;78;20935;-94
2022/08/25 04:54:44;;;;;;;20.82;10.05;;;;;;;22.70;39.97;101062.88;1826104;78;21380;-94
2022/08/25 04:57:11;;;;;;;13.65;10.65;;;;;;;22.95;39.80;101052.27;1826352;78;20891;-93
2022/08/25 04:59:38;;;;;;;18.17;11.08;;;;;;;23.25;38.92;101055.38;1825896;78;21385;-93
2022/08/25 05:02:05;;;;;;;18.15;9.75;;;;;;;23.55;38.51;101060.63;1826092;78;21247;-93
2022/08/25 05:04:34;;;;;;;15.18;8.80;;;;;;;24.00;38.02;101055.28;1826804;78;20993;-92
2022/08/25 05:07:01;;;;;;;22.27;10.00;;;;;;;24.61;37.44;101052.48;1826354;78;20977;-91
2022/08/25 05:09:29;;;;;;;16.52;8.53;;;;;;;25.31;35.92;101043.26;1828227;77;20966;-90
2022/08/25 05:11:56;;;;;;;14.00;9.20;;;;;;;25.97;34.29;101043.59;1828440;78;20970;-91
2022/08/25 05:14:34;;;;;;;12.63;8.18;;;;;;;26.54;33.63;101042.11;1828222;78;21219;-94
2022/08/25 05:16:58;;;;;;;21.68;10.40;;;;;;;27.07;32.66;101038.23;1826445;78;20843;-93
2022/08/25 05:19:25;;;;;;;15.80;8.98;;;;;;;27.59;31.92;101043.53;1827369;78;20982;-92
2022/08/25 05:21:54;;;;;;;12.70;8.15;;;;;;;28.07;31.39;101041.05;1828412;78;20884;-93
2022/08/25 05:24:20;;;;;;;16.35;8.20;;;;;;;28.55;30.87;101040.30;1827186;78;20887;-91
2022/08/25 05:26:47;;;;;;;15.43;8.05;;;;;;;29.07;30.67;101041.02;1825814;78;20847;-93
2022/08/25 05:29:14;;;;;;;18.55;9.33;;;;;;;29.60;29.80;101036.25;1826160;78;21448;-95
2022/08/25 05:31:44;;;;;;;13.13;8.28;;;;;;;30.08;28.16;101046.86;1825479;78;21341;-95
2022/08/25 05:34:11;;;;;;;11.80;8.78;;;;;;;30.43;27.91;101041.70;1825806;78;20879;-95
2022/08/25 05:36:42;;;;;;;19.85;8.40;;;;;;;30.71;27.64;101032.74;1826242;78;20918;-94
2022/08/25 05:39:10;;;;;;;13.98;8.03;;;;;;;31.06;27.77;101033.75;1826186;78;20864;-96
2022/08/25 05:41:37;;;;;;;14.28;9.68;;;;;;;31.40;26.93;101033.81;1825923;78;20895;-94
2022/08/25 05:44:04;;;;;;;14.18;8.20;;;;;;;31.72;26.71;101029.72;1825991;78;20970;-95
2022/08/25 05:46:30;;;;;;;11.75;8.55;;;;;;;32.10;26.34;101027.94;1826617;78;20954;-94
2022/08/25 05:48:57;;;;;;;14.45;8.18;;;;;;;32.46;26.17;101029.84;1800279;78;20946;-94
2022/08/25 05:51:26;;;;;;;16.75;9.83;;;;;;;32.83;25.84;101029.27;1826752;77;21064;-94
2022/08/25 05:53:53;;;;;;;16.40;9.15;;;;;;;33.17;25.24;101027.47;1824947;78;20958;-96
2022/08/25 05:56:24;;;;;;;12.40;9.50;;;;;;;33.44;24.78;101020.56;1824305;78;20896;-94
2022/08/25 05:58:59;;;;;;;16.12;9.08;;;;;;;33.72;24.58;101022.33;1824418;78;20895;-93
2022/08/25 06:04:11;;;;;;;11.63;8.48;;;;;;;34.25;23.80;101024.09;1824858;77;21190;-94
2022/08/25 06:06:38;;;;;;;16.82;8.78;;;;;;;34.51;23.59;101018.64;1823656;78;20844;-93
2022/08/25 06:09:07;;;;;;;14.40;8.25;;;;;;;34.70;23.43;101017.94;1822868;78;20919;-95
2022/08/25 06:11:36;;;;;;;11.33;8.25;;;;;;;34.93;23.33;101019.75;1822256;78;21413;-93
2022/08/25 06:14:03;;;;;;;12.23;8.03;;;;;;;35.14;22.87;101016.05;1822790;78;20967;-95
2022/08/25 06:16:31;;;;;;;20.17;7.97;;;;;;;35.34;22.50;101010.94;1790030;78;21051;-96
2022/08/25 06:19:02;;;;;;;12.98;6.10;;;;;;;35.51;22.08;101017.77;1823511;78;21413;-93
2022/08/25 06:21:29;;;;;;;12.80;6.95;;;;;;;35.69;22.20;101024.34;1823865;78;20932;-94
2022/08/25 06:23:58;;;;;;;13.03;6.65;;;;;;;35.94;21.86;101022.25;1822799;78;20908;-93
2022/08/25 06:26:28;;;;;;;13.03;5.95;;;;;;;36.22;21.53;101021.27;1790080;78;21002;-93
2022/08/25 06:28:56;;;;;;;23.47;17.65;;;;;;;36.39;21.06;101013.02;1823077;78;21162;-93
2022/08/25 06:31:23;;;;;;;10.03;5.33;;;;;;;36.55;21.40;101017.58;1789223;78;20919;-94
2022/08/25 06:33:51;;;;;;;9.73;4.97;;;;;;;36.82;21.48;101021.75;1822359;78;21002;-93
2022/08/25 06:36:18;;;;;;;7.60;4.70;;;;;;;37.17;21.02;101016.34;1822784;78;21389;-93
2022/08/25 06:38:45;;;;;;;5.05;3.50;;;;;;;37.35;20.24;101009.66;1822819;78;21410;-93
2022/08/25 06:41:12;;;;;;;11.55;3.77;;;;;;;37.48;20.39;101005.10;1823199;78;21130;-92
2022/08/25 06:43:46;;;;;;;8.23;3.65;;;;;;;37.67;20.35;101003.36;1822927;78;20975;-91
2022/08/25 06:46:19;;;;;;;4.40;3.70;;;;;;;37.88;20.16;100994.16;1821813;78;20927;-92
2022/08/25 06:48:45;;;;;;;11.60;3.80;;;;;;;38.15;20.13;101005.55;1822752;78;20925;-91
2022/08/25 06:51:14;;;;;;;19.20;3.40;;;;;;;38.32;20.05;100999.87;1822990;78;20899;-90
2022/08/25 06:53:42;;;;;;;8.00;3.33;;;;;;;38.49;19.64;101001.07;1826077;78;21467;-90
2022/08/25 06:56:09;;;;;;;7.95;3.40;;;;;;;38.65;19.51;100992.33;1826212;78;20880;-93
2022/08/25 06:58:37;;;;;;;7.62;3.12;;;;;;;38.71;19.12;100988.48;1826381;78;20929;-93
2022/08/25 07:01:19;;;;;;;10.00;3.92;;;;;;;38.73;19.12;100989.88;1826458;78;21321;-94
2022/08/25 07:03:46;;;;;;;12.13;3.60;;;;;;;38.89;18.86;100987.16;1826308;78;20884;-93
2022/08/25 07:06:13;;;;;;;8.43;3.52;;;;;;;39.00;18.88;100992.11;1826433;78;21878;-94
2022/08/25 07:08:40;;;;;;;7.25;3.30;;;;;;;39.18;18.96;100982.80;1827316;78;20879;-96
2022/08/25 07:11:08;;;;;;;13.95;4.92;;;;;;;39.47;19.00;100985.56;1828261;78;20879;-93
2022/08/25 07:13:35;;;;;;;9.18;3.80;;;;;;;39.66;18.30;100978.35;1828225;78;20947;-93
2022/08/25 07:16:04;;;;;;;5.12;3.58;;;;;;;39.82;17.82;100989.30;1826333;78;21040;-93
2022/08/25 07:18:31;;;;;;;10.18;4.10;;;;;;;39.98;17.67;100979.95;1826887;78;22240;-91
2022/08/25 07:20:58;;;;;;;8.45;3.42;;;;;;;39.96;17.70;100969.80;1826812;78;20939;-91
2022/08/25 07:23:25;;;;;;;5.50;3.15;;;;;;;39.99;17.98;100971.41;1826301;78;20907;-91
2022/08/25 07:25:55;;;;;;;7.12;2.95;;;;;;;40.20;17.99;100962.53;1828332;78;20860;-92
2022/08/25 07:28:23;;;;;;;4.40;2.95;;;;;;;40.44;17.51;100958.30;1826253;78;20914;-93
2022/08/25 07:30:52;;;;;;;5.65;3.60;;;;;;;40.42;17.48;100940.70;1826554;78;21469;-93
2022/08/25 07:33:19;;;;;;;8.10;3.40;;;;;;;40.63;16.63;100951.03;1825921;78;20875;-92
2022/08/25 07:35:46;;;;;;;7.33;2.87;;;;;;;40.67;16.81;100958.17;1826265;78;20915;-93
2022/08/25 07:38:13;;;;;;;8.68;3.70;;;;;;;40.75;16.74;100945.19;1826356;78;21002;-94
2022/08/25 07:40:40;;;;;;;4.60;2.98;;;;;;;40.89;15.92;100940.69;1826579;78;20887;-93
2022/08/25 07:43:10;;;;;;;9.15;4.00;;;;;;;40.96;15.85;100939.80;1826945;78;21357;-94
2022/08/25 07:45:38;;;;;;;7.05;3.05;;;;;;;40.92;15.38;100935.16;1826858;78;20880;-93
2022/08/25 07:48:10;;;;;;;6.65;3.47;;;;;;;40.89;15.35;100935.19;1826727;78;20851;-94
2022/08/25 07:50:41;;;;;;;9.78;3.00;;;;;;;40.84;15.92;100932.45;1826665;78;20958;-92
2022/08/25 07:53:10;;;;;;;8.53;3.37;;;;;;;40.80;15.35;100924.52;1826560;78;20923;-94
2022/08/25 07:55:36;;;;;;;9.33;2.62;;;;;;;40.76;15.29;100913.28;1826217;78;21135;-93
2022/08/25 07:58:05;;;;;;;13.90;3.45;;;;;;;40.80;15.80;100914.35;1826358;78;20990;-93
2022/08/25 08:00:35;;;;;;;7.60;3.20;;;;;;;40.91;15.57;100916.47;1827484;78;21404;-91
2022/08/25 08:03:05;;;;;;;8.85;3.12;;;;;;;40.96;15.75;100908.72;1799642;77;20911;-90
2022/08/25 08:05:32;;;;;;;6.60;2.80;;;;;;;41.06;15.51;100905.03;1800750;78;21053;-93
2022/08/25 08:07:59;;;;;;;7.85;2.95;;;;;;;41.15;15.74;100906.89;1826706;78;23650;-92
2022/08/25 08:10:26;;;;;;;7.70;2.85;;;;;;;41.26;14.89;100900.73;1825745;78;20934;-88
2022/08/25 08:12:53;;;;;;;3.70;2.75;;;;;;;41.28;15.00;100906.77;1825905;78;21464;-95
2022/08/25 08:15:22;;;;;;;12.20;3.27;;;;;;;41.27;14.65;100890.00;1826660;78;20919;-91
2022/08/25 08:17:50;;;;;;;3.00;1.62;;;;;;;41.28;14.56;100889.44;1827031;78;20852;-92
2022/08/25 08:20:16;;;;;;;5.03;1.77;;;;;;;41.29;14.04;100898.78;1826067;78;21410;-90
2022/08/25 08:22:45;;;;;;;9.80;2.22;;;;;;;41.23;14.07;100879.30;1826516;78;20975;-93
2022/08/25 08:25:12;;;;;;;8.98;2.17;;;;;;;41.10;13.76;100893.72;1826378;78;21299;-95
2022/08/25 08:27:41;;;;;;;6.50;1.62;;;;;;;40.90;13.56;100872.73;1826379;78;20938;-96
2022/08/25 08:30:11;;;;;;;7.78;1.85;;;;;;;40.52;13.50;100863.67;1826319;78;20864;-91
2022/08/25 08:32:40;;;;;;;10.35;2.22;;;;;;;40.17;13.92;100873.77;1826168;78;21137;-92
2022/08/25 08:35:11;;;;;;;9.45;1.50;;;;;;;39.86;14.54;100863.52;1826684;78;20963;-96
2022/08/25 08:37:41;;;;;;;12.25;3.40;;;;;;;39.88;14.46;100864.05;1826225;78;20840;-92
2022/08/25 08:40:09;;;;;;;8.40;2.20;;;;;;;40.07;14.60;100862.05;1826577;78;20824;-94
2022/08/25 08:43:05;;;;;;;10.95;2.47;;;;;;;40.24;14.42;100852.84;1799876;78;20868;-94
2022/08/25 08:45:42;;;;;;;9.28;2.22;;;;;;;40.31;14.15;100862.17;1825623;77;21221;-92
2022/08/25 08:48:23;;;;;;;5.92;1.70;;;;;;;40.34;14.05;100853.38;1827886;77;20879;-94
2022/08/25 08:51:17;;;;;;;8.40;1.30;;;;;;;40.49;14.08;100849.66;1828472;77;20871;-93
2022/08/25 08:54:05;;;;;;;6.70;2.12;;;;;;;40.68;13.84;100845.67;1821709;77;20978;-95
2022/08/25 08:56:39;;;;;;;12.07;1.65;;;;;;;40.91;14.14;100841.34;1826088;78;20879;-93
2022/08/25 08:59:17;;;;;;;5.10;1.20;;;;;;;41.09;13.61;100842.00;1826472;78;21132;-93
2022/08/25 09:01:58;;;;;;;6.78;1.47;;;;;;;40.81;13.34;100854.09;1822335;78;20959;-92
2022/08/25 09:04:38;;;;;;;7.17;1.77;;;;;;;40.36;13.45;100825.05;1826518;77;20994;-93
2022/08/25 09:07:15;;;;;;;12.73;1.98;;;;;;;40.12;14.07;100831.78;1825497;78;20962;-94
2022/08/25 09:09:42;;;;;;;9.13;1.87;;;;;;;40.22;14.38;100856.42;1825981;78;20966;-93
2022/08/25 09:22:12;;;;;;;7.55;1.77;;;;;;;40.63;14.39;100821.78;1695082;84;20928;-90
2022/08/25 09:25:26;;;;;;;5.50;1.62;;;;;;;40.73;13.85;100810.70;1694967;84;21015;-90
2022/08/25 09:28:10;;;;;;;7.00;2.10;;;;;;;40.65;14.11;100813.26;1695697;84;21438;-92
2022/08/25 09:31:02;;;;;;;5.45;2.00;;;;;;;40.55;14.23;100801.78;1662405;85;21033;-92
2022/08/25 09:33:32;;;;;;;6.42;1.70;;;;;;;40.54;13.99;100813.90;1612436;86;21044;-91
2022/08/25 09:35:59;;;;;;;5.60;1.45;;;;;;;40.51;13.69;100818.58;1661162;85;21026;-93
2022/08/25 09:38:32;;;;;;;7.35;1.57;;;;;;;40.32;13.77;100804.17;1661467;85;20906;-93
2022/08/25 09:40:59;;;;;;;4.28;1.42;;;;;;;40.11;13.58;100817.23;1659821;85;21803;-91
2022/08/25 09:43:42;;;;;;;6.08;1.52;;;;;;;39.79;13.62;100800.63;1661624;85;20970;-89
2022/08/25 09:46:13;;;;;;;8.30;2.00;;;;;;;39.69;14.37;100809.47;1659169;86;20902;-91
2022/08/25 09:48:47;;;;;;;9.05;2.85;;;;;;;39.61;13.78;100802.66;1662238;84;20930;-90
2022/08/25 09:51:35;;;;;;;15.03;2.22;;;;;;;39.41;14.37;100791.78;1662285;85;21017;-91
2022/08/25 09:54:33;;;;;;;13.05;1.85;;;;;;;39.44;14.61;100804.38;1662107;85;23790;-90
2022/08/25 09:57:09;;;;;;;3.42;1.10;;;;;;;39.53;14.11;100797.75;1651370;85;21045;-90
2022/08/25 09:59:37;;;;;;;10.20;1.98;;;;;;;39.43;14.46;100794.52;1618668;85;21049;-92
2022/08/25 10:02:25;;;;;;;7.95;2.00;;;;;;;39.33;14.69;100791.24;1662529;86;20890;-92
2022/08/25 10:04:56;;;;;;;9.48;1.98;;;;;;;39.24;14.83;100786.59;1663390;85;21005;-89
2022/08/25 10:07:34;;;;;;;9.18;1.90;;;;;;;39.18;15.04;100799.53;1697562;84;22082;-91
2022/08/25 10:10:08;;;;;;;6.30;1.67;;;;;;;39.10;14.88;100787.19;1697653;81;20941;-91
2022/08/25 10:12:41;;;;;;;6.25;1.87;;;;;;;39.09;15.23;100777.89;1622085;85;21212;-92
2022/08/25 10:15:20;;;;;;;8.50;2.95;;;;;;;39.25;15.84;100767.67;1739627;78;21128;-94
2022/08/25 10:17:49;;;;;;;17.90;13.25;;;;;;;39.55;15.50;100784.00;1796193;79;20892;-90
2022/08/25 10:20:27;;;;;;;7.47;3.25;;;;;;;39.81;15.35;100772.08;1800329;79;21203;-91
2022/08/25 10:23:06;;;;;;;9.60;3.47;;;;;;;39.91;15.20;100779.73;1800256;79;20896;-94
2022/08/25 10:25:37;;;;;;;7.45;2.30;;;;;;;39.93;15.30;100771.19;1799656;79;20923;-92
2022/08/25 10:28:21;;;;;;;9.00;2.45;;;;;;;39.99;15.23;100768.12;1729655;78;21403;-92
2022/08/25 10:31:12;;;;;;;10.50;2.57;;;;;;;40.06;15.47;100765.61;1746710;80;20900;-92
2022/08/25 10:34:10;;;;;;;8.50;2.45;;;;;;;40.27;15.46;100775.93;1763287;80;21235;-92
2022/08/25 10:37:28;;;;;;;5.50;2.25;;;;;;;40.36;14.74;100759.89;1763591;80;20844;-92
2022/08/25 10:40:06;;;;;;;5.08;2.17;;;;;;;40.58;15.27;100757.23;1763878;81;20974;-90
2022/08/25 10:43:13;;;;;;;8.30;2.72;;;;;;;40.70;14.93;100760.42;1759655;80;20995;-90
2022/08/25 10:45:52;;;;;;;7.15;2.20;;;;;;;40.66;14.60;100748.32;1762586;80;20896;-90
2022/08/25 10:48:44;;;;;;;7.78;1.95;;;;;;;40.62;14.80;100754.13;1763429;81;21136;-90
2022/08/25 10:51:59;;;;;;;9.73;1.70;;;;;;;40.63;14.91;100740.66;1747626;81;21424;-91
2022/08/25 10:54:39;;;;;;;10.40;2.27;;;;;;;40.55;13.45;100760.54;1763259;81;20908;-92
2022/08/25 10:57:36;;;;;;;6.37;1.80;;;;;;;40.26;13.62;100755.00;1762565;81;20960;-91
2022/08/25 11:00:12;;;;;;;12.07;3.80;;;;;;;39.92;13.22;100745.65;1762105;81;20947;-91
2022/08/25 11:02:50;;;;;;;4.70;1.20;;;;;;;39.63;13.82;100751.03;1746614;81;21277;-89
2022/08/25 11:05:41;;;;;;;5.22;1.70;;;;;;;39.59;14.05;100739.78;1763695;79;20877;-91
2022/08/25 11:08:39;;;;;;;6.92;1.12;;;;;;;39.56;14.15;100729.39;1763816;78;20928;-90
2022/08/25 11:11:30;;;;;;;14.68;1.98;;;;;;;39.45;14.18;100747.58;1747870;80;20920;-94
2022/08/25 11:20:17;;;;;;;8.78;2.10;;;;;;;39.16;14.18;100751.78;1736391;78;20947;-91
2022/08/25 11:22:55;;;;;;;6.97;1.77;;;;;;;39.05;14.30;100743.33;1747776;81;20984;-87
2022/08/25 11:25:43;;;;;;;5.17;1.75;;;;;;;39.06;14.62;100742.77;1736171;81;21014;-89
2022/08/25 11:28:34;;;;;;;10.18;8.23;;;;;;;39.13;14.64;100734.52;1737896;81;20778;-92
2022/08/25 11:31:02;;;;;;;6.22;1.80;;;;;;;39.07;15.09;100732.89;1741030;78;21236;-90
2022/08/25 11:33:30;;;;;;;7.10;1.90;;;;;;;39.06;14.68;100725.75;1741696;82;20955;-89
2022/08/25 11:36:12;;;;;;;6.17;1.62;;;;;;;39.01;14.88;100715.36;1725696;83;20959;-89
2022/08/25 11:39:21;;;;;;;4.53;1.25;;;;;;;38.83;15.19;100722.25;1704061;82;20996;-90
2022/08/25 11:42:02;;;;;;;10.00;1.57;;;;;;;38.64;15.57;100710.48;1708063;83;21014;-88
2022/08/25 11:45:15;;;;;;;5.60;1.30;;;;;;;38.56;15.58;100707.78;1726210;83;21139;-89
2022/08/25 11:48:13;;;;;;;3.77;1.30;;;;;;;38.34;15.75;100709.42;1726150;82;20928;-90
2022/08/25 11:51:04;;;;;;;4.22;1.60;;;;;;;38.11;16.37;100712.71;1708864;82;21003;-92
2022/08/25 11:53:39;;;;;;;8.60;1.62;;;;;;;37.97;16.26;100715.70;1727173;83;20888;-87
2022/08/25 11:56:35;;;;;;;14.18;6.50;;;;;;;37.70;16.44;100711.30;1726672;82;20940;-87
2022/08/25 11:59:03;;;;;;;4.92;1.95;;;;;;;37.42;16.84;100705.19;1726751;81;21319;-88
2022/08/25 12:01:49;;;;;;;6.92;2.30;;;;;;;37.11;17.21;100709.19;1726902;82;20951;-87
2022/08/25 12:04:33;;;;;;;6.78;2.72;;;;;;;36.86;17.42;100715.85;1726269;83;20837;-88
2022/08/25 12:07:13;;;;;;;9.33;2.80;;;;;;;36.50;18.14;100694.56;1725725;82;21373;-89